Time;durP1;ratioP1;P1;durP2;ratioP2;P2;SDS_P1;SDS_P2;PMS_P1;PMS_P2;Temp;Humidity;BMP_temperature;BMP_pressure;BME280_temperature;BME280_humidity;BME280_pressure;Samples;Min_cycle;Max_cycle;Signal;HPM_P1;HPM_P2
2023/12/19 00:00:06;;;;;;;16.23;12.23;;;5.50;99.90;;;;;;5032546;28;20175;-71
2023/12/19 00:02:32;;;;;;;15.43;11.90;;;5.60;99.90;;;;;;5032324;28;20171;-70
2023/12/19 00:04:58;;;;;;;16.97;12.23;;;5.50;99.90;;;;;;5031826;28;20175;-70
2023/12/19 00:07:23;;;;;;;15.90;12.83;;;5.50;99.90;;;;;;5032505;28;20207;-71
2023/12/19 00:09:49;;;;;;;14.57;11.93;;;5.50;99.90;;;;;;5032336;28;20199;-70
2023/12/19 00:12:15;;;;;;;15.23;12.07;;;5.40;99.90;;;;;;5032236;28;20199;-70
2023/12/19 00:14:40;;;;;;;16.23;11.93;;;5.30;99.90;;;;;;5032048;28;20518;-70
2023/12/19 00:17:06;;;;;;;13.03;11.63;;;5.30;99.90;;;;;;5032691;28;20262;-71
2023/12/19 00:19:32;;;;;;;14.77;11.97;;;5.30;1.00;;;;;;5032458;28;20589;-71
2023/12/19 00:21:57;;;;;;;17.30;13.00;;;5.30;99.90;;;;;;5032309;28;20207;-70
2023/12/19 00:24:23;;;;;;;18.20;12.00;;;5.30;99.90;;;;;;5032093;28;20186;-70
2023/12/19 00:26:49;;;;;;;15.83;12.30;;;5.30;99.90;;;;;;5032624;28;20678;-70
2023/12/19 00:29:14;;;;;;;15.53;12.07;;;5.30;1.00;;;;;;5032962;28;20183;-71
2023/12/19 00:31:40;;;;;;;15.43;12.13;;;5.20;1.00;;;;;;5031847;28;20565;-70
2023/12/19 00:34:05;;;;;;;16.13;12.70;;;5.20;1.00;;;;;;5031724;28;20199;-70
2023/12/19 00:36:31;;;;;;;12.57;10.70;;;5.10;1.00;;;;;;5031971;28;20501;-70
2023/12/19 00:38:57;;;;;;;13.43;10.87;;;5.20;1.00;;;;;;5031748;28;20199;-70
2023/12/19 00:41:22;;;;;;;16.57;12.27;;;5.20;1.00;;;;;;5031407;28;20725;-70
2023/12/19 00:43:48;;;;;;;15.70;12.00;;;5.20;1.00;;;;;;5031514;28;20171;-71
2023/12/19 00:46:13;;;;;;;16.20;11.10;;;5.20;1.00;;;;;;5031838;28;20175;-71
2023/12/19 00:48:39;;;;;;;17.37;11.70;;;5.10;1.00;;;;;;5031643;28;20199;-71
2023/12/19 00:51:09;;;;;;;13.53;11.73;;;5.10;99.90;;;;;;5031827;28;20187;-71
2023/12/19 00:53:35;;;;;;;14.43;11.23;;;5.10;99.90;;;;;;5030966;28;20608;-71
2023/12/19 00:56:00;;;;;;;15.60;11.10;;;5.20;99.90;;;;;;5030938;28;20246;-71
2023/12/19 00:58:26;;;;;;;13.77;11.07;;;5.20;99.90;;;;;;5013609;28;20280;-70
2023/12/19 01:00:52;;;;;;;14.13;11.33;;;5.20;99.90;;;;;;5031356;28;20172;-70
2023/12/19 01:03:17;;;;;;;15.00;11.37;;;5.30;99.90;;;;;;5013594;28;20183;-71
2023/12/19 01:05:43;;;;;;;12.60;10.33;;;5.20;99.90;;;;;;5031288;28;20179;-71
2023/12/19 01:08:09;;;;;;;12.43;10.67;;;5.20;99.90;;;;;;5031235;28;20203;-71
2023/12/19 01:10:35;;;;;;;11.90;10.60;;;5.20;1.00;;;;;;5031455;28;20202;-71
2023/12/19 01:13:00;;;;;;;12.70;10.60;;;5.20;17.70;;;;;;5031089;28;20207;-71
2023/12/19 01:15:26;;;;;;;11.93;10.63;;;5.20;99.90;;;;;;5031049;28;20175;-71
2023/12/19 01:17:51;;;;;;;11.50;10.30;;;5.30;1.00;;;;;;5031000;28;20191;-71
2023/12/19 01:20:17;;;;;;;10.87;9.67;;;5.40;1.00;;;;;;5031028;28;20203;-71
2023/12/19 01:22:43;;;;;;;10.17;9.17;;;5.40;1.00;;;;;;5030844;28;20187;-71
2023/12/19 01:25:09;;;;;;;10.20;9.00;;;5.40;1.00;;;;;;5030981;28;20221;-71
2023/12/19 01:27:34;;;;;;;11.63;10.43;;;5.50;99.90;;;;;;5030760;28;20302;-71
2023/12/19 01:30:00;;;;;;;11.03;9.83;;;5.50;99.90;;;;;;5031113;28;20175;-71
2023/12/19 01:32:25;;;;;;;12.40;10.93;;;5.60;1.00;;;;;;5030934;28;20198;-71
2023/12/19 01:34:52;;;;;;;11.80;10.60;;;5.50;1.00;;;;;;5030659;28;20184;-71
2023/12/19 01:37:18;;;;;;;11.47;10.30;;;5.60;1.00;;;;;;5031057;28;20163;-69
2023/12/19 01:39:44;;;;;;;11.13;9.77;;;5.50;99.90;;;;;;5031011;28;20244;-70
2023/12/19 01:42:09;;;;;;;10.47;9.37;;;5.50;99.90;;;;;;5031058;28;20514;-70
2023/12/19 01:44:35;;;;;;;12.30;10.63;;;5.50;99.90;;;;;;5030841;28;20186;-70
2023/12/19 01:47:01;;;;;;;11.70;9.97;;;5.50;99.90;;;;;;5030857;28;20179;-69
2023/12/19 01:49:27;;;;;;;11.67;9.77;;;5.50;1.00;;;;;;5031533;28;20261;-70
2023/12/19 01:51:52;;;;;;;12.90;10.27;;;5.40;62.20;;;;;;5031266;28;20174;-70
2023/12/19 01:54:19;;;;;;;14.43;10.03;;;5.40;99.90;;;;;;5032871;28;20207;-70
2023/12/19 01:56:45;;;;;;;11.20;10.00;;;5.30;99.90;;;;;;5034925;28;20441;-69
2023/12/19 01:59:12;;;;;;;11.77;9.37;;;5.40;1.00;;;;;;5034963;28;20191;-70
2023/12/19 02:01:38;;;;;;;12.90;9.93;;;5.30;1.00;;;;;;5034590;28;20186;-69
2023/12/19 02:04:04;;;;;;;11.13;9.67;;;5.30;99.90;;;;;;5034779;28;20187;-70
2023/12/19 02:06:33;;;;;;;12.13;10.27;;;5.40;99.90;;;;;;5034914;28;20669;-70
2023/12/19 02:08:59;;;;;;;10.43;9.17;;;5.30;99.90;;;;;;5034934;28;20612;-70
2023/12/19 02:11:25;;;;;;;11.37;9.67;;;5.40;99.90;;;;;;5034730;28;20199;-69
2023/12/19 02:13:50;;;;;;;11.27;9.33;;;5.40;1.00;;;;;;5034197;28;20694;-71
2023/12/19 02:16:16;;;;;;;10.83;9.50;;;5.30;1.00;;;;;;5034537;28;20167;-70
2023/12/19 02:18:43;;;;;;;11.70;10.23;;;5.30;1.00;;;;;;5034122;28;20238;-70
2023/12/19 02:21:08;;;;;;;12.50;10.07;;;5.30;1.00;;;;;;5034566;28;20168;-70
2023/12/19 02:23:34;;;;;;;10.67;9.53;;;5.30;1.00;;;;;;5034256;28;20230;-70
2023/12/19 02:25:59;;;;;;;10.77;9.47;;;5.30;29.70;;;;;;5034391;28;20175;-71
2023/12/19 02:28:25;;;;;;;10.40;9.37;;;5.40;99.90;;;;;;5034295;28;20211;-70
2023/12/19 02:30:51;;;;;;;10.83;9.73;;;5.30;99.90;;;;;;5033875;28;20287;-70
2023/12/19 02:33:17;;;;;;;12.03;9.90;;;5.30;99.90;;;;;;5034365;28;20199;-70
2023/12/19 02:35:43;;;;;;;10.93;9.83;;;5.30;99.90;;;;;;5033997;28;20174;-70
2023/12/19 02:38:08;;;;;;;10.93;9.80;;;5.30;1.00;;;;;;5034120;28;20199;-70
2023/12/19 02:40:34;;;;;;;10.67;9.57;;;5.40;1.00;;;;;;5016288;28;20255;-70
2023/12/19 02:43:01;;;;;;;9.80;8.80;;;5.40;1.00;;;;;;5033694;28;20498;-69
2023/12/19 02:45:30;;;;;;;11.03;9.83;;;5.40;1.00;;;;;;5033813;28;20186;-69
2023/12/19 02:47:55;;;;;;;10.87;9.40;;;5.30;1.00;;;;;;5033829;28;20566;-69
2023/12/19 02:50:21;;;;;;;9.73;8.73;;;5.30;99.90;;;;;;5033928;28;20216;-69
2023/12/19 02:52:47;;;;;;;10.13;9.20;;;5.40;99.90;;;;;;5033761;28;20270;-69
2023/12/19 02:55:12;;;;;;;9.77;8.77;;;5.40;1.00;;;;;;5033616;28;20159;-70
2023/12/19 02:57:38;;;;;;;12.20;9.70;;;5.40;1.00;;;;;;5033179;28;20229;-70
2023/12/19 03:00:05;;;;;;;10.07;8.87;;;5.40;99.90;;;;;;5033945;28;20176;-70
2023/12/19 03:02:31;;;;;;;11.47;8.57;;;5.40;99.90;;;;;;5033652;28;20175;-70
2023/12/19 03:04:57;;;;;;;11.77;9.23;;;5.40;1.00;;;;;;5033133;28;20237;-70
2023/12/19 03:07:22;;;;;;;10.67;8.93;;;5.40;1.00;;;;;;5033750;28;20262;-70
2023/12/19 03:09:48;;;;;;;9.93;8.73;;;5.40;28.60;;;;;;5033440;28;20515;-70
2023/12/19 03:12:13;;;;;;;10.50;9.40;;;5.50;99.90;;;;;;5033100;28;20179;-70
2023/12/19 03:14:39;;;;;;;10.27;9.27;;;5.50;99.90;;;;;;5033876;28;20183;-70
2023/12/19 03:17:05;;;;;;;10.40;9.07;;;5.50;99.90;;;;;;5032985;28;20168;-70
2023/12/19 03:19:31;;;;;;;10.23;9.13;;;5.50;99.90;;;;;;5033308;28;20211;-70
2023/12/19 03:21:57;;;;;;;9.97;8.63;;;5.50;99.90;;;;;;5033162;28;20176;-70
2023/12/19 03:24:23;;;;;;;10.60;9.47;;;5.60;99.90;;;;;;5032916;28;20230;-69
2023/12/19 03:26:49;;;;;;;10.60;9.50;;;5.50;99.90;;;;;;5033127;28;20827;-70
2023/12/19 03:29:15;;;;;;;14.93;9.73;;;5.60;99.90;;;;;;5033100;28;20201;-69
2023/12/19 03:31:42;;;;;;;12.43;10.80;;;5.50;99.90;;;;;;5032889;28;20179;-69
2023/12/19 03:34:08;;;;;;;10.60;9.50;;;5.40;99.90;;;;;;5032761;28;20199;-70
2023/12/19 03:36:33;;;;;;;13.33;9.60;;;5.50;99.90;;;;;;5032644;28;20182;-70
2023/12/19 03:38:59;;;;;;;13.73;9.87;;;5.50;99.90;;;;;;5033117;28;20210;-69
2023/12/19 03:41:25;;;;;;;10.80;9.70;;;5.50;99.90;;;;;;5033009;28;20214;-69
2023/12/19 03:43:51;;;;;;;11.27;10.10;;;5.50;99.90;;;;;;5032472;28;20187;-69
2023/12/19 03:46:17;;;;;;;10.33;9.37;;;5.60;99.90;;;;;;5033012;28;20639;-70
2023/12/19 03:48:44;;;;;;;11.47;10.27;;;5.50;99.90;;;;;;5032666;28;20278;-70
2023/12/19 03:51:10;;;;;;;13.37;9.57;;;5.60;99.90;;;;;;5032679;28;20179;-69
2023/12/19 03:53:36;;;;;;;11.07;9.97;;;5.50;99.90;;;;;;5014582;28;20207;-69
2023/12/19 03:56:02;;;;;;;10.73;9.60;;;5.60;99.90;;;;;;5032895;28;20168;-70
2023/12/19 03:58:27;;;;;;;12.97;9.83;;;5.60;99.90;;;;;;5032857;28;20229;-70
2023/12/19 04:00:53;;;;;;;11.40;9.77;;;5.70;99.90;;;;;;5032510;28;20175;-70
2023/12/19 04:03:19;;;;;;;11.43;9.67;;;5.70;99.90;;;;;;5032272;28;20187;-69
2023/12/19 04:05:44;;;;;;;11.27;9.87;;;5.70;99.90;;;;;;5032565;28;20523;-70
2023/12/19 04:08:10;;;;;;;11.30;9.70;;;5.70;99.90;;;;;;5032579;28;20722;-70
2023/12/19 04:10:35;;;;;;;10.80;9.70;;;5.70;99.90;;;;;;5032452;28;20615;-70
2023/12/19 04:13:01;;;;;;;12.13;10.17;;;5.80;99.90;;;;;;5032530;28;20199;-70
2023/12/19 04:15:27;;;;;;;11.37;10.17;;;5.80;99.90;;;;;;5032605;28;20524;-69
2023/12/19 04:17:53;;;;;;;11.70;10.10;;;5.80;99.90;;;;;;5031332;28;20209;-69
2023/12/19 04:20:18;;;;;;;10.73;9.63;;;5.90;99.90;;;;;;5032548;28;20569;-69
2023/12/19 04:22:44;;;;;;;11.03;9.90;;;5.90;99.90;;;;;;5032356;28;20711;-70
2023/12/19 04:25:09;;;;;;;10.93;9.30;;;6.00;99.90;;;;;;5032283;28;20290;-70
2023/12/19 04:27:36;;;;;;;10.70;9.03;;;6.00;99.90;;;;;;5032305;28;20178;-70
2023/12/19 04:30:02;;;;;;;9.20;8.30;;;6.00;97.00;;;;;;5032242;28;20225;-70
2023/12/19 04:32:28;;;;;;;9.83;8.93;;;6.00;99.90;;;;;;5031804;28;20350;-69
2023/12/19 04:34:53;;;;;;;10.30;9.30;;;6.00;99.90;;;;;;5031795;28;20262;-69
2023/12/19 04:37:19;;;;;;;10.43;8.70;;;6.00;99.90;;;;;;5032370;28;20226;-70
2023/12/19 04:39:45;;;;;;;9.73;8.73;;;6.00;99.90;;;;;;5032200;28;20206;-70
2023/12/19 04:42:17;;;;;;;9.57;8.33;;;6.00;1.00;;;;;;5032103;28;20171;-70
2023/12/19 04:44:46;;;;;;;9.40;8.37;;;5.90;1.00;;;;;;5031872;28;20164;-70
2023/12/19 04:47:11;;;;;;;9.63;8.63;;;5.90;1.00;;;;;;5031763;28;20172;-70
2023/12/19 04:49:37;;;;;;;9.73;8.73;;;5.90;1.00;;;;;;5031855;28;20207;-70
2023/12/19 04:52:03;;;;;;;9.63;8.63;;;5.90;1.00;;;;;;5031819;28;20179;-69
2023/12/19 04:54:29;;;;;;;9.97;8.53;;;5.80;1.00;;;;;;5030747;28;20183;-69
2023/12/19 04:56:55;;;;;;;10.33;8.50;;;5.80;15.10;;;;;;5030903;28;20164;-69
2023/12/19 04:59:20;;;;;;;9.03;8.10;;;5.80;45.50;;;;;;5031190;28;20203;-69
2023/12/19 05:01:46;;;;;;;9.13;8.23;;;5.80;88.60;;;;;;5031642;28;20164;-69
2023/12/19 05:04:12;;;;;;;9.60;8.53;;;5.90;99.90;;;;;;5031660;28;20175;-70
2023/12/19 05:06:37;;;;;;;8.83;8.03;;;5.80;99.90;;;;;;5031479;28;20246;-69
2023/12/19 05:09:03;;;;;;;9.77;8.60;;;5.80;99.90;;;;;;5031529;28;20685;-69
2023/12/19 05:11:28;;;;;;;10.10;8.93;;;5.70;99.90;;;;;;5031668;28;20175;-69
2023/12/19 05:13:54;;;;;;;9.30;8.40;;;5.70;99.90;;;;;;5030897;28;20289;-69
2023/12/19 05:16:20;;;;;;;9.20;8.30;;;5.70;99.90;;;;;;5031593;28;20614;-69
2023/12/19 05:18:46;;;;;;;9.20;8.23;;;5.60;99.90;;;;;;5031134;28;20288;-69
2023/12/19 05:21:12;;;;;;;9.03;8.13;;;5.70;99.90;;;;;;5031546;28;20179;-69
2023/12/19 05:23:39;;;;;;;9.87;8.80;;;5.60;99.90;;;;;;5030962;28;20545;-69
2023/12/19 05:26:06;;;;;;;9.77;8.67;;;5.70;99.90;;;;;;5031166;28;20183;-69
2023/12/19 05:28:33;;;;;;;8.67;7.87;;;5.70;99.90;;;;;;5030987;28;20286;-69
2023/12/19 05:30:59;;;;;;;9.27;8.37;;;5.60;99.90;;;;;;5030943;28;20590;-69
2023/12/19 05:33:26;;;;;;;9.03;7.63;;;5.60;99.90;;;;;;5030828;28;20297;-69
2023/12/19 05:35:52;;;;;;;8.77;7.87;;;5.70;99.90;;;;;;5030973;28;20172;-69
2023/12/19 05:38:18;;;;;;;9.70;7.80;;;5.80;99.90;;;;;;5031037;28;20190;-72
2023/12/19 05:40:44;;;;;;;8.53;7.27;;;5.70;99.90;;;;;;5031329;28;20271;-70
2023/12/19 05:43:10;;;;;;;7.57;6.87;;;5.70;99.90;;;;;;5031071;28;20611;-70
2023/12/19 05:45:36;;;;;;;7.60;6.90;;;5.80;99.90;;;;;;5031063;28;20179;-70
2023/12/19 05:48:02;;;;;;;8.67;7.77;;;5.80;99.90;;;;;;5030891;28;20554;-70
2023/12/19 05:50:27;;;;;;;8.33;7.57;;;5.80;99.90;;;;;;5031111;28;20171;-69
2023/12/19 05:52:53;;;;;;;8.63;7.83;;;5.80;99.90;;;;;;5030842;28;20191;-69
2023/12/19 05:55:19;;;;;;;8.30;7.60;;;5.80;99.90;;;;;;5030816;28;20546;-69
2023/12/19 05:57:45;;;;;;;8.70;7.90;;;5.80;99.90;;;;;;5031371;28;20174;-69
2023/12/19 06:00:11;;;;;;;8.33;7.53;;;5.80;99.90;;;;;;5031849;28;20172;-70
2023/12/19 06:02:37;;;;;;;8.50;7.67;;;5.80;99.90;;;;;;5031554;28;20184;-70
2023/12/19 06:05:07;;;;;;;8.90;7.83;;;5.90;99.90;;;;;;5030607;28;20648;-69
2023/12/19 06:07:35;;;;;;;8.33;7.53;;;5.90;99.90;;;;;;5031075;28;20230;-69
2023/12/19 06:10:01;;;;;;;10.97;9.07;;;5.90;99.90;;;;;;5031074;28;20639;-69
2023/12/19 06:12:27;;;;;;;9.10;8.30;;;5.90;99.90;;;;;;5030856;28;20306;-69
2023/12/19 06:14:52;;;;;;;9.50;8.60;;;5.90;99.90;;;;;;5030545;28;20179;-69
2023/12/19 06:17:18;;;;;;;10.13;8.90;;;5.90;99.90;;;;;;5030962;28;20176;-69
2023/12/19 06:19:43;;;;;;;9.50;8.50;;;5.90;99.90;;;;;;5030784;28;20211;-69
2023/12/19 06:22:10;;;;;;;9.00;8.10;;;6.00;99.90;;;;;;5030610;28;20574;-69
2023/12/19 06:24:35;;;;;;;9.37;8.47;;;6.00;99.90;;;;;;5030520;28;20259;-69
2023/12/19 06:27:01;;;;;;;10.10;9.20;;;6.00;99.90;;;;;;5030511;28;20755;-69
2023/12/19 06:29:26;;;;;;;10.03;9.03;;;6.00;99.90;;;;;;5030809;28;20565;-70
2023/12/19 06:31:52;;;;;;;10.87;8.70;;;6.10;99.90;;;;;;5030629;28;20168;-69
2023/12/19 06:34:18;;;;;;;10.17;8.93;;;6.00;99.90;;;;;;5030470;28;20199;-69
2023/12/19 06:36:44;;;;;;;11.43;8.63;;;6.00;99.90;;;;;;5030599;28;20182;-69
2023/12/19 06:39:10;;;;;;;9.37;8.37;;;6.00;99.90;;;;;;5030220;28;20310;-69
2023/12/19 06:41:36;;;;;;;8.93;8.13;;;5.90;99.90;;;;;;5030459;28;20659;-70
2023/12/19 06:44:02;;;;;;;10.50;9.13;;;6.00;99.90;;;;;;5034335;28;20180;-69
2023/12/19 06:46:27;;;;;;;9.60;8.17;;;6.00;99.90;;;;;;5034162;28;20185;-70
2023/12/19 06:48:53;;;;;;;9.43;8.47;;;6.10;99.90;;;;;;5033969;28;20229;-70
2023/12/19 06:51:28;;;;;;;9.10;8.20;;;6.10;99.90;;;;;;5034291;28;20179;-70
2023/12/19 06:53:57;;;;;;;10.17;8.53;;;6.20;99.90;;;;;;5033565;28;20260;-70
2023/12/19 06:56:26;;;;;;;9.67;8.77;;;6.20;99.90;;;;;;5033640;28;20245;-70
2023/12/19 06:58:53;;;;;;;12.47;8.80;;;6.30;99.90;;;;;;5032295;28;20732;-70
2023/12/19 07:01:18;;;;;;;9.67;8.77;;;6.30;99.90;;;;;;5033717;28;20202;-69
2023/12/19 07:03:44;;;;;;;10.17;8.90;;;6.20;99.90;;;;;;5033255;28;20183;-69
2023/12/19 07:06:16;;;;;;;9.33;8.33;;;6.20;99.90;;;;;;5033290;28;20559;-69
2023/12/19 07:08:42;;;;;;;8.07;7.37;;;6.30;99.90;;;;;;5033152;28;20203;-69
2023/12/19 07:11:08;;;;;;;8.90;8.00;;;6.30;99.90;;;;;;5033026;28;20191;-69
2023/12/19 07:13:34;;;;;;;10.00;8.07;;;6.40;99.90;;;;;;5033371;28;20214;-69
2023/12/19 07:16:00;;;;;;;9.10;8.30;;;6.40;99.90;;;;;;5033411;28;20179;-69
2023/12/19 07:18:26;;;;;;;10.90;8.73;;;6.60;99.90;;;;;;5033332;28;20207;-68
2023/12/19 07:20:52;;;;;;;10.43;8.90;;;6.70;99.90;;;;;;5033273;28;20174;-68
2023/12/19 07:23:17;;;;;;;9.90;9.00;;;6.90;99.90;;;;;;5033700;28;20198;-69
2023/12/19 07:25:43;;;;;;;10.90;9.80;;;7.00;99.90;;;;;;5034387;28;20179;-70
2023/12/19 07:28:08;;;;;;;10.53;9.53;;;7.10;99.90;;;;;;5033240;28;20566;-69
2023/12/19 07:30:34;;;;;;;10.83;9.70;;;7.20;99.90;;;;;;5033571;28;20257;-68
2023/12/19 07:33:00;;;;;;;10.27;9.30;;;7.30;99.90;;;;;;5015262;28;20208;-69
2023/12/19 07:35:25;;;;;;;9.93;8.93;;;7.40;99.90;;;;;;5033157;28;20190;-69
2023/12/19 07:37:51;;;;;;;11.40;9.07;;;7.40;99.90;;;;;;5032664;28;20257;-69
2023/12/19 07:40:17;;;;;;;11.43;10.33;;;7.40;99.90;;;;;;5032695;28;20176;-69
2023/12/19 07:42:44;;;;;;;12.90;10.30;;;7.40;99.90;;;;;;5033540;28;20258;-69
2023/12/19 07:45:13;;;;;;;15.03;9.43;;;7.40;99.90;;;;;;5032741;28;20199;-68
2023/12/19 07:47:39;;;;;;;7.20;6.47;;;7.50;99.90;;;;;;5033301;28;20175;-69
2023/12/19 07:50:06;;;;;;;7.23;6.50;;;7.60;99.90;;;;;;5032689;28;20532;-69
2023/12/19 07:52:31;;;;;;;8.50;6.90;;;7.40;99.90;;;;;;5031661;28;20358;-70
2023/12/19 07:54:57;;;;;;;5.97;5.53;;;7.30;99.90;;;;;;5032595;28;20722;-70
2023/12/19 07:57:23;;;;;;;5.87;5.47;;;7.20;99.90;;;;;;5032443;28;20288;-71
2023/12/19 07:59:49;;;;;;;7.50;5.73;;;7.10;99.90;;;;;;5032535;28;20188;-71
2023/12/19 08:02:15;;;;;;;8.57;6.27;;;7.10;99.90;;;;;;5032431;28;20182;-71
2023/12/19 08:04:42;;;;;;;10.83;8.33;;;7.00;99.90;;;;;;5031645;28;20187;-71
2023/12/19 08:07:08;;;;;;;5.70;5.30;;;7.00;99.90;;;;;;5031620;28;20168;-71
2023/12/19 08:09:34;;;;;;;6.07;5.57;;;7.00;99.90;;;;;;5032557;28;20223;-71
2023/12/19 08:12:00;;;;;;;7.73;6.53;;;7.00;99.90;;;;;;5032212;28;20186;-71
2023/12/19 08:14:27;;;;;;;8.90;8.10;;;7.00;99.90;;;;;;5032085;28;20300;-71
2023/12/19 08:16:53;;;;;;;7.57;6.87;;;7.00;99.90;;;;;;5032357;28;20163;-71
2023/12/19 08:19:18;;;;;;;7.23;5.60;;;7.00;99.90;;;;;;5031830;28;20575;-71
2023/12/19 08:21:51;;;;;;;5.70;5.30;;;7.10;99.90;;;;;;5014217;28;20251;-70
2023/12/19 08:24:17;;;;;;;9.23;6.37;;;7.00;99.90;;;;;;5031851;28;20172;-71
2023/12/19 08:26:50;;;;;;;5.63;5.23;;;7.00;99.90;;;;;;5031971;28;20587;-72
2023/12/19 08:29:16;;;;;;;6.07;5.40;;;7.10;99.90;;;;;;5031895;28;20203;-71
2023/12/19 08:31:48;;;;;;;6.67;6.07;;;7.10;99.90;;;;;;5032042;28;20167;-71
2023/12/19 08:34:18;;;;;;;9.27;5.30;;;7.20;99.90;;;;;;5031120;28;20215;-71
2023/12/19 08:36:44;;;;;;;6.70;6.20;;;7.20;99.90;;;;;;5014119;28;20179;-71
2023/12/19 08:39:10;;;;;;;7.47;6.87;;;7.30;99.90;;;;;;5031708;28;20188;-71
2023/12/19 08:41:37;;;;;;;5.93;5.37;;;7.30;99.90;;;;;;5031899;28;20593;-71
2023/12/19 08:44:03;;;;;;;6.57;5.90;;;7.40;99.90;;;;;;5031896;28;20176;-71
2023/12/19 08:46:29;;;;;;;7.67;6.30;;;7.50;99.90;;;;;;5031758;28;20732;-71
2023/12/19 08:48:54;;;;;;;7.80;6.93;;;7.60;99.90;;;;;;5031654;28;20465;-71
2023/12/19 08:51:21;;;;;;;8.67;6.50;;;7.60;99.90;;;;;;5031497;28;20228;-71
2023/12/19 08:53:46;;;;;;;7.17;6.53;;;7.70;99.90;;;;;;5031546;28;20225;-71
2023/12/19 08:56:12;;;;;;;6.80;6.30;;;7.90;99.90;;;;;;5031025;28;20243;-71
2023/12/19 08:58:37;;;;;;;8.20;7.40;;;8.00;99.90;;;;;;5022034;28;20548;-71
2023/12/19 09:01:03;;;;;;;6.80;6.20;;;8.10;99.90;;;;;;5011575;28;20187;-70
2023/12/19 09:03:29;;;;;;;7.60;5.97;;;8.10;99.90;;;;;;5011382;28;20174;-72
2023/12/19 09:05:54;;;;;;;5.83;5.33;;;8.20;99.90;;;;;;5011529;28;20251;-71
2023/12/19 09:08:21;;;;;;;7.10;6.10;;;8.20;99.90;;;;;;5025433;28;20290;-71
2023/12/19 09:10:46;;;;;;;8.53;6.07;;;8.20;99.90;;;;;;5031056;28;20222;-70
2023/12/19 09:13:12;;;;;;;6.80;6.10;;;8.20;99.90;;;;;;5030737;28;20749;-70
2023/12/19 09:15:38;;;;;;;7.17;6.07;;;8.20;99.90;;;;;;5031371;28;20168;-71
2023/12/19 09:18:04;;;;;;;7.57;5.67;;;8.40;99.90;;;;;;5031645;28;20275;-70
2023/12/19 09:20:30;;;;;;;6.50;5.50;;;8.40;99.90;;;;;;5031364;28;20178;-71
2023/12/19 09:22:55;;;;;;;7.00;6.07;;;8.50;99.90;;;;;;5031107;28;20221;-71
2023/12/19 09:25:21;;;;;;;6.07;5.47;;;8.60;99.90;;;;;;5030949;28;20176;-70
2023/12/19 09:27:48;;;;;;;5.57;5.10;;;8.60;99.90;;;;;;5030747;28;20186;-71
2023/12/19 09:30:15;;;;;;;8.03;4.70;;;8.60;99.90;;;;;;5030992;28;20210;-70
2023/12/19 09:32:42;;;;;;;6.00;5.53;;;8.60;99.90;;;;;;5031032;28;20203;-71
2023/12/19 09:35:10;;;;;;;5.60;5.10;;;8.50;99.90;;;;;;5031004;28;20623;-71
2023/12/19 09:37:37;;;;;;;8.67;4.87;;;8.50;99.90;;;;;;5030977;28;20172;-71
2023/12/19 09:40:03;;;;;;;6.03;5.00;;;8.60;99.90;;;;;;5030968;28;20168;-71
2023/12/19 09:42:31;;;;;;;5.53;4.70;;;8.50;99.90;;;;;;5030730;28;20179;-71
2023/12/19 09:44:57;;;;;;;5.27;4.73;;;8.40;99.90;;;;;;5030659;28;20491;-71
2023/12/19 09:47:24;;;;;;;5.63;5.13;;;8.40;99.90;;;;;;5030961;28;20250;-71
2023/12/19 09:49:57;;;;;;;7.17;5.30;;;8.30;99.90;;;;;;5030443;28;20274;-71
2023/12/19 09:52:24;;;;;;;5.03;4.63;;;8.40;99.90;;;;;;5030763;28;20302;-71
2023/12/19 09:54:51;;;;;;;6.90;4.73;;;8.40;99.90;;;;;;5012621;28;20179;-71
2023/12/19 09:57:21;;;;;;;5.23;4.83;;;8.50;99.90;;;;;;5030313;28;20585;-71
2023/12/19 09:59:47;;;;;;;5.23;4.60;;;8.50;99.90;;;;;;5030713;28;20654;-71
2023/12/19 10:02:19;;;;;;;5.73;4.63;;;8.50;99.90;;;;;;5030385;28;20218;-71
2023/12/19 10:04:45;;;;;;;4.77;4.37;;;8.60;99.90;;;;;;5030759;28;20171;-71
2023/12/19 10:07:11;;;;;;;5.77;4.67;;;8.70;99.90;;;;;;5030583;28;20195;-71
2023/12/19 10:09:55;;;;;;;5.77;5.27;;;8.60;99.90;;;;;;5030836;28;20265;-71
2023/12/19 10:12:22;;;;;;;5.50;4.93;;;8.60;99.90;;;;;;5029985;28;20547;-71
2023/12/19 10:14:47;;;;;;;6.07;4.97;;;8.60;99.90;;;;;;5031369;28;20201;-71
2023/12/19 10:17:15;;;;;;;5.33;4.83;;;8.60;99.90;;;;;;5034244;28;20178;-71
2023/12/19 10:19:41;;;;;;;6.53;5.20;;;8.60;99.90;;;;;;5034099;28;20215;-71
2023/12/19 10:22:08;;;;;;;7.43;5.03;;;8.50;99.90;;;;;;5034279;28;20421;-70
2023/12/19 10:24:35;;;;;;;5.67;4.83;;;8.50;99.90;;;;;;5030289;28;20690;-71
2023/12/19 10:27:02;;;;;;;5.33;4.83;;;8.40;99.90;;;;;;5014295;28;20179;-71
2023/12/19 10:29:36;;;;;;;5.47;4.93;;;8.40;99.90;;;;;;5014365;28;20192;-71
2023/12/19 10:32:13;;;;;;;5.83;5.00;;;8.30;99.90;;;;;;5014081;28;20545;-71
2023/12/19 10:34:38;;;;;;;5.43;5.00;;;8.30;99.90;;;;;;5013932;28;20222;-71
2023/12/19 10:37:15;;;;;;;5.10;4.70;;;8.20;99.90;;;;;;5014160;28;20174;-71
2023/12/19 10:39:44;;;;;;;8.20;4.90;;;8.20;99.90;;;;;;5028239;28;20210;-71
2023/12/19 10:42:10;;;;;;;12.93;5.27;;;8.30;99.90;;;;;;5033549;28;20172;-71
2023/12/19 10:44:39;;;;;;;6.63;4.90;;;8.50;99.90;;;;;;5033757;28;20255;-71
2023/12/19 10:47:08;;;;;;;6.37;4.20;;;8.80;99.90;;;;;;5033765;28;20179;-71
2023/12/19 10:49:37;;;;;;;7.87;4.73;;;9.00;99.90;;;;;;5033622;28;20202;-71
2023/12/19 10:52:09;;;;;;;7.27;4.50;;;9.20;99.90;;;;;;5033919;28;20254;-70
2023/12/19 10:54:36;;;;;;;4.43;4.10;;;9.30;99.90;;;;;;5033628;28;20567;-71
2023/12/19 10:57:18;;;;;;;5.70;4.67;;;9.50;99.90;;;;;;5033697;28;20226;-71
2023/12/19 11:00:13;;;;;;;9.93;4.83;;;9.60;99.90;;;;;;5033344;28;20222;-70
2023/12/19 11:02:47;;;;;;;6.87;4.17;;;9.70;99.90;;;;;;5013805;28;20172;-71
2023/12/19 11:05:16;;;;;;;5.03;3.97;;;9.80;99.90;;;;;;5013951;28;20237;-71
2023/12/19 11:07:42;;;;;;;7.17;4.40;;;9.80;99.90;;;;;;5017526;28;20171;-71
2023/12/19 11:10:10;;;;;;;5.70;4.20;;;9.90;99.90;;;;;;5033425;28;20175;-70
2023/12/19 11:12:36;;;;;;;8.23;4.60;;;10.00;99.90;;;;;;5033325;28;20191;-71
2023/12/19 11:15:04;;;;;;;9.73;4.50;;;10.00;99.90;;;;;;5033192;28;20665;-71
2023/12/19 11:17:35;;;;;;;10.03;4.40;;;10.10;99.90;;;;;;5033307;28;20647;-70
2023/12/19 11:20:13;;;;;;;9.57;3.90;;;10.10;99.90;;;;;;5033205;28;20254;-71
2023/12/19 11:23:28;;;;;;;5.03;4.40;;;10.10;99.90;;;;;;5033262;28;20217;-71
2023/12/19 11:26:06;;;;;;;4.43;4.00;;;10.00;99.90;;;;;;4991343;28;20208;-72
2023/12/19 11:28:37;;;;;;;5.17;3.67;;;9.90;99.90;;;;;;4991435;28;20696;-71
2023/12/19 11:31:03;;;;;;;7.23;4.37;;;9.70;99.90;;;;;;5018765;28;20199;-72
2023/12/19 11:33:30;;;;;;;5.67;4.60;;;9.60;99.90;;;;;;5033286;28;20261;-71
2023/12/19 11:36:09;;;;;;;11.07;4.43;;;9.60;99.90;;;;;;5032885;28;20655;-71
2023/12/19 11:38:34;;;;;;;5.90;4.67;;;9.50;99.90;;;;;;5032783;28;20199;-72
2023/12/19 11:41:01;;;;;;;5.63;4.80;;;9.40;99.90;;;;;;5025581;28;20180;-70
2023/12/19 11:43:29;;;;;;;13.73;4.83;;;9.50;99.90;;;;;;5030601;28;20175;-71
2023/12/19 11:46:16;;;;;;;10.13;4.97;;;9.50;99.90;;;;;;5032072;28;20172;-72
2023/12/19 11:48:47;;;;;;;10.07;5.30;;;9.50;99.90;;;;;;5024011;28;20195;-71
2023/12/19 11:51:13;;;;;;;8.83;5.40;;;9.50;99.90;;;;;;5022711;28;20266;-71
2023/12/19 11:53:40;;;;;;;11.13;4.90;;;9.50;99.90;;;;;;5024570;28;20252;-71
2023/12/19 11:56:11;;;;;;;9.17;5.03;;;9.50;99.90;;;;;;5012703;28;20251;-71
2023/12/19 11:58:45;;;;;;;9.33;4.90;;;9.50;99.90;;;;;;5027803;28;20195;-71
2023/12/19 12:01:11;;;;;;;7.27;4.50;;;9.50;99.90;;;;;;5032593;28;20213;-71
2023/12/19 12:03:40;;;;;;;10.40;4.23;;;9.40;99.90;;;;;;5032734;28;20570;-71
2023/12/19 12:06:10;;;;;;;4.77;4.10;;;9.40;99.90;;;;;;5032737;28;20198;-70
2023/12/19 12:08:36;;;;;;;9.00;4.00;;;9.40;99.90;;;;;;5032841;28;20191;-71
2023/12/19 12:11:07;;;;;;;9.20;4.40;;;9.40;99.90;;;;;;5031223;28;20206;-71
2023/12/19 12:13:35;;;;;;;7.70;4.27;;;9.30;99.90;;;;;;5032299;28;20667;-71
2023/12/19 12:16:02;;;;;;;6.27;4.30;;;9.30;99.90;;;;;;5032823;28;20171;-70
2023/12/19 12:18:30;;;;;;;5.97;3.90;;;9.30;99.90;;;;;;5031847;28;20260;-71
2023/12/19 12:21:07;;;;;;;6.43;3.93;;;9.40;99.90;;;;;;5032177;28;20221;-71
2023/12/19 12:23:32;;;;;;;7.50;3.77;;;9.40;99.90;;;;;;5032123;28;20183;-71
2023/12/19 12:25:58;;;;;;;5.53;4.20;;;9.40;99.90;;;;;;5031816;28;20582;-71
2023/12/19 12:28:28;;;;;;;4.40;3.50;;;9.40;99.90;;;;;;5032133;28;20242;-71
2023/12/19 12:30:55;;;;;;;5.17;3.80;;;9.40;99.90;;;;;;5031801;28;20182;-71
2023/12/19 12:33:23;;;;;;;7.10;3.80;;;9.50;99.90;;;;;;5031631;28;20196;-70
2023/12/19 12:35:49;;;;;;;6.47;4.37;;;9.60;99.90;;;;;;5031783;28;20183;-70
2023/12/19 12:38:17;;;;;;;4.40;3.90;;;9.60;99.90;;;;;;5030510;28;20257;-71
2023/12/19 12:41:00;;;;;;;6.07;4.20;;;9.60;99.90;;;;;;5031428;28;20171;-70
2023/12/19 12:43:37;;;;;;;7.03;4.37;;;9.70;99.90;;;;;;5030396;28;20574;-71
2023/12/19 12:46:04;;;;;;;10.90;4.30;;;9.70;99.90;;;;;;5017953;28;20626;-71
2023/12/19 12:48:30;;;;;;;6.27;3.90;;;9.70;99.90;;;;;;5031489;28;20237;-70
2023/12/19 12:50:56;;;;;;;6.70;4.17;;;9.60;99.90;;;;;;5031543;28;20207;-71